Z — ZGDW2 — position and weather

sailwx.info

Track history (hours):
 
Tides and Currents Weather Stations Pressure Air Temp Water Temp Dewpoint Dewpoint Depression Visibility Wind Speed Wind Dir Waves Ship Positions

Z

Last reported at 2018-Jun-18 09:07 UTC. Time now 2018-Jun-18 15:40 UTC.
Position N 41°23' E 002°11'.

Length 65 m; draft 4 m.

Type: Pleasure craft. MMSI: 319062900.

Date/timePositionNaut miles runAvg speedWind from/ knotsBaromVisibWave heightAir tempDewpointWater temp
2018-Jun-18 09:07N 41°23' E 002°11'0 0.0
2018-Jun-18 08:39N 41°23' E 002°11'0 0.4
2018-Jun-18 08:31N 41°23' E 002°11'2 4.9
2018-Jun-18 08:00N 41°20' E 002°13'4 7.9
2018-Jun-18 07:30N 41°16' E 002°13'714.8
2018-Jun-18 07:00N 41°09' E 002°10'10313.4
2018-Jun-17 23:18N 39°32' E 001°23'413.5
2018-Jun-17 23:00N 39°28' E 001°21'2313.8
2018-Jun-17 21:20N 39°07' E 001°11'1712.5
2018-Jun-17 20:01N 38°50' E 001°12'413.5
2018-Jun-17 19:44N 38°51' E 001°17'2 0.8
2018-Jun-17 17:56N 38°52' E 001°19'0 0.0
2018-Jun-17 17:20N 38°52' E 001°19'0 0.0
2018-Jun-17 16:55N 38°52' E 001°19'0 0.0
2018-Jun-17 16:01N 38°52' E 001°19'0 0.3
2018-Jun-17 15:56N 38°52' E 001°19'812.2
2018-Jun-17 15:17N 38°45' E 001°25'0 1.3
2018-Jun-17 15:00N 38°45' E 001°26'0 0.0
2018-Jun-17 13:48N 38°45' E 001°26'0 0.8
2018-Jun-17 13:23N 38°45' E 001°26'0 0.1
2018-Jun-17 12:59N 38°45' E 001°26'0 0.0
2018-Jun-17 12:29N 38°45' E 001°26'0 0.0
2018-Jun-17 11:49N 38°45' E 001°26'0 0.0
2018-Jun-17 11:07N 38°45' E 001°26'0 0.0
2018-Jun-17 10:47N 38°45' E 001°26'0 0.6
2018-Jun-17 10:31N 38°45' E 001°26'8 6.5
2018-Jun-17 09:13N 38°52' E 001°19'0 0.0
2018-Jun-17 08:55N 38°52' E 001°19'0 0.0
2018-Jun-17 05:25N 38°52' E 001°19'0 0.0
2018-Jun-17 04:49N 38°52' E 001°19'0 0.0
2018-Jun-17 04:13N 38°52' E 001°19'0 0.0
2018-Jun-17 03:55N 38°52' E 001°19'0 0.0
2018-Jun-17 03:25N 38°52' E 001°19'0 0.0
2018-Jun-17 02:49N 38°52' E 001°19'0 0.0
2018-Jun-17 02:13N 38°52' E 001°19'0 0.0
2018-Jun-17 01:49N 38°52' E 001°19'0 0.0
2018-Jun-17 01:19N 38°52' E 001°19'0 0.0
2018-Jun-17 00:55N 38°52' E 001°19'0 0.0
2018-Jun-17 00:13N 38°52' E 001°19'0 0.0
2018-Jun-16 23:55N 38°52' E 001°19'0 0.0
2018-Jun-16 20:13N 38°52' E 001°19'0 0.0
2018-Jun-16 19:49N 38°52' E 001°19'0 0.0
2018-Jun-16 19:19N 38°52' E 001°19'0 0.0
2018-Jun-16 18:55N 38°52' E 001°19'0 0.0
2018-Jun-16 18:19N 38°52' E 001°19'0 0.0
2018-Jun-16 17:55N 38°52' E 001°19'0 0.0
2018-Jun-16 16:25N 38°52' E 001°19'0 0.0
2018-Jun-16 15:55N 38°52' E 001°19'0 0.0
2018-Jun-16 15:25N 38°52' E 001°19'0 0.0
2018-Jun-16 12:49N 38°52' E 001°19'0 0.0
2018-Jun-16 11:31N 38°52' E 001°19'0 0.0
2018-Jun-16 11:19N 38°52' E 001°19'0 0.0
2018-Jun-16 10:55N 38°52' E 001°19'0 0.0
2018-Jun-16 08:49N 38°52' E 001°19'0 0.0
2018-Jun-16 08:25N 38°52' E 001°19'0 0.0
2018-Jun-16 07:07N 38°52' E 001°19'0 0.0
2018-Jun-16 06:55N 38°52' E 001°19'0 0.0
2018-Jun-16 05:01N 38°52' E 001°19'0 0.0
2018-Jun-16 04:55N 38°52' E 001°19'0 0.0
2018-Jun-16 03:07N 38°52' E 001°19'0 0.1
2018-Jun-16 02:55N 38°52' E 001°19'0 0.0
2018-Jun-16 01:43N 38°52' E 001°19'0 0.0
2018-Jun-16 01:19N 38°52' E 001°19'0 0.0
2018-Jun-16 00:43N 38°52' E 001°19'0 0.0
2018-Jun-16 00:19N 38°52' E 001°19'0 0.0
2018-Jun-15 23:49N 38°52' E 001°19'0 0.0
2018-Jun-15 23:25N 38°52' E 001°19'0 0.0
2018-Jun-15 19:19N 38°52' E 001°19'0 0.0
2018-Jun-15 18:55N 38°52' E 001°19'0 0.0
2018-Jun-15 18:25N 38°52' E 001°19'0 0.0
2018-Jun-15 17:49N 38°52' E 001°19'0 0.0
2018-Jun-15 17:07N 38°52' E 001°19'0 0.0
2018-Jun-15 16:43N 38°52' E 001°19'36 0.8
2018-Jun-13 20:52N 38°28' E 000°45'514.4
2018-Jun-13 20:30N 38°24' E 000°40'714.3
2018-Jun-13 20:00N 38°19' E 000°33'714.4
2018-Jun-13 19:30N 38°14' E 000°26'714.4
2018-Jun-13 19:00N 38°10' E 000°20'2714.1
2018-Jun-13 17:05N 37°51' W 000°06'114.2
2018-Jun-13 16:59N 37°50' W 000°07'714.4
2018-Jun-13 16:30N 37°46' W 000°14'714.5
2018-Jun-13 16:00N 37°41' W 000°21'714.7
2018-Jun-13 15:30N 37°36' W 000°27'714.5
2018-Jun-13 15:00N 37°31' W 000°34'714.6
2018-Jun-13 14:30N 37°26' W 000°41'714.6
2018-Jun-13 14:00N 37°21' W 000°48'714.4
2018-Jun-13 13:30N 37°16' W 000°54'714.4
2018-Jun-13 13:00N 37°12' W 001°01'814.4
2018-Jun-13 12:29N 37°06' W 001°08'21113.5
2018-Jun-12 20:50N 36°06' W 005°19'3 9.5
2018-Jun-12 20:30N 36°07' W 005°22'1 2.8
2018-Jun-12 19:59N 36°09' W 005°22'0 0.0
2018-Jun-12 19:29N 36°09' W 005°22'0 0.0
2018-Jun-12 16:56N 36°09' W 005°22'0 0.0
2018-Jun-12 16:29N 36°09' W 005°22'0 0.0
2018-Jun-12 15:05N 36°09' W 005°22'0 0.0
2018-Jun-12 14:55N 36°09' W 005°22'0 0.6
2018-Jun-12 14:29N 36°08' W 005°22'2 3.3
2018-Jun-12 13:58N 36°07' W 005°22'3 6.7
2018-Jun-12 13:30N 36°06' W 005°19'20110.2
2018-Jun-11 17:54N 37°01' W 001°18'611.1
2018-Jun-11 17:22N 37°05' W 001°13'811.0
2018-Jun-11 16:37N 37°11' W 001°05'111.0
2018-Jun-11 16:29N 37°12' W 001°04'511.0
2018-Jun-11 16:00N 37°15' W 000°59'510.8
2018-Jun-11 15:30N 37°19' W 000°54'510.7
2018-Jun-11 15:00N 37°22' W 000°49'510.4
2018-Jun-11 14:30N 37°26' W 000°44'510.5
2018-Jun-11 14:00N 37°30' W 000°40'611.1
2018-Jun-11 13:30N 37°34' W 000°35'611.1
2018-Jun-11 13:00N 37°38' W 000°30'510.8
2018-Jun-11 12:30N 37°42' W 000°26'510.8
2018-Jun-11 12:00N 37°47' W 000°23'611.1
2018-Jun-11 11:30N 37°51' W 000°19'611.3
2018-Jun-11 10:58N 37°57' W 000°15'511.5
2018-Jun-11 10:30N 38°01' W 000°11'611.4
2018-Jun-11 10:00N 38°06' W 000°07'20111.6
2018-Jun-10 16:38N 41°01' E 002°02'211.9
2018-Jun-10 16:28N 41°02' E 002°03'611.9
2018-Jun-10 15:59N 41°07' E 002°06'611.8
2018-Jun-10 15:31N 41°12' E 002°10'611.5
2018-Jun-10 15:00N 41°17' E 002°14'5 9.6
2018-Jun-10 14:30N 41°22' E 002°11'1 0.1
2018-Jun-10 09:10N 41°23' E 002°11'0 0.0
2018-Jun-10 07:34N 41°23' E 002°11'0 0.0
2018-Jun-09 17:22N 41°23' E 002°11'0 0.0
2018-Jun-09 16:34N 41°23' E 002°11'0 0.0
2018-Jun-09 12:04N 41°23' E 002°11'0 0.0
2018-Jun-09 11:46N 41°23' E 002°11'0 0.0
2018-Jun-09 09:46N 41°23' E 002°11'0 0.0
2018-Jun-09 09:28N 41°23' E 002°11'0 0.0
2018-Jun-08 18:22N 41°23' E 002°11'0 0.0
2018-Jun-08 16:52N 41°23' E 002°11'0 0.0
2018-Jun-08 16:22N 41°23' E 002°11'0 0.0
2018-Jun-08 15:52N 41°23' E 002°11'0 0.0
2018-Jun-08 15:28N 41°23' E 002°11'0 0.0
2018-Jun-08 13:40N 41°23' E 002°11'0 0.0
2018-Jun-08 13:22N 41°23' E 002°11'0 0.0
2018-Jun-08 12:52N 41°23' E 002°11'0 0.0
2018-Jun-08 12:22N 41°23' E 002°11'0 0.0
2018-Jun-08 11:58N 41°23' E 002°11'0 0.0
2018-Jun-08 11:28N 41°23' E 002°11'0 0.0
2018-Jun-08 10:58N 41°23' E 002°11'0 0.0
2018-Jun-08 10:16N 41°23' E 002°11'0 0.0
2018-Jun-08 09:58N 41°23' E 002°11'0 0.0
2018-Jun-08 09:16N 41°23' E 002°11'  
Track history (hours):
 
Tides and Currents Weather Stations Pressure Air Temp Water Temp Dewpoint Dewpoint Depression Visibility Wind Speed Wind Dir Waves Ship Positions

Z

Last reported at 2018-Jun-18 09:07 UTC. Time now 2018-Jun-18 15:40 UTC.
Position N 41°23' E 002°11'.

Length 65 m; draft 4 m.

Type: Pleasure craft. MMSI: 319062900.

Date/timePositionNaut miles runAvg speedWind from/ knotsBaromVisibWave heightAir tempDewpointWater temp
2018-Jun-18 09:07N 41°23' E 002°11'0 0.0
2018-Jun-18 08:39N 41°23' E 002°11'0 0.4
2018-Jun-18 08:31N 41°23' E 002°11'2 4.9
2018-Jun-18 08:00N 41°20' E 002°13'4 7.9
2018-Jun-18 07:30N 41°16' E 002°13'714.8
2018-Jun-18 07:00N 41°09' E 002°10'10313.4
2018-Jun-17 23:18N 39°32' E 001°23'413.5
2018-Jun-17 23:00N 39°28' E 001°21'2313.8
2018-Jun-17 21:20N 39°07' E 001°11'1712.5
2018-Jun-17 20:01N 38°50' E 001°12'413.5
2018-Jun-17 19:44N 38°51' E 001°17'2 0.8
2018-Jun-17 17:56N 38°52' E 001°19'0 0.0
2018-Jun-17 17:20N 38°52' E 001°19'0 0.0
2018-Jun-17 16:55N 38°52' E 001°19'0 0.0
2018-Jun-17 16:01N 38°52' E 001°19'0 0.3
2018-Jun-17 15:56N 38°52' E 001°19'812.2
2018-Jun-17 15:17N 38°45' E 001°25'0 1.3
2018-Jun-17 15:00N 38°45' E 001°26'0 0.0
2018-Jun-17 13:48N 38°45' E 001°26'0 0.8
2018-Jun-17 13:23N 38°45' E 001°26'0 0.1
2018-Jun-17 12:59N 38°45' E 001°26'0 0.0
2018-Jun-17 12:29N 38°45' E 001°26'0 0.0
2018-Jun-17 11:49N 38°45' E 001°26'0 0.0
2018-Jun-17 11:07N 38°45' E 001°26'0 0.0
2018-Jun-17 10:47N 38°45' E 001°26'0 0.6
2018-Jun-17 10:31N 38°45' E 001°26'8 6.5
2018-Jun-17 09:13N 38°52' E 001°19'0 0.0
2018-Jun-17 08:55N 38°52' E 001°19'0 0.0
2018-Jun-17 05:25N 38°52' E 001°19'0 0.0
2018-Jun-17 04:49N 38°52' E 001°19'0 0.0
2018-Jun-17 04:13N 38°52' E 001°19'0 0.0
2018-Jun-17 03:55N 38°52' E 001°19'0 0.0
2018-Jun-17 03:25N 38°52' E 001°19'0 0.0
2018-Jun-17 02:49N 38°52' E 001°19'0 0.0
2018-Jun-17 02:13N 38°52' E 001°19'0 0.0
2018-Jun-17 01:49N 38°52' E 001°19'0 0.0
2018-Jun-17 01:19N 38°52' E 001°19'0 0.0
2018-Jun-17 00:55N 38°52' E 001°19'0 0.0
2018-Jun-17 00:13N 38°52' E 001°19'0 0.0
2018-Jun-16 23:55N 38°52' E 001°19'0 0.0
2018-Jun-16 20:13N 38°52' E 001°19'0 0.0
2018-Jun-16 19:49N 38°52' E 001°19'0 0.0
2018-Jun-16 19:19N 38°52' E 001°19'0 0.0
2018-Jun-16 18:55N 38°52' E 001°19'0 0.0
2018-Jun-16 18:19N 38°52' E 001°19'0 0.0
2018-Jun-16 17:55N 38°52' E 001°19'0 0.0
2018-Jun-16 16:25N 38°52' E 001°19'0 0.0
2018-Jun-16 15:55N 38°52' E 001°19'0 0.0
2018-Jun-16 15:25N 38°52' E 001°19'0 0.0
2018-Jun-16 12:49N 38°52' E 001°19'0 0.0
2018-Jun-16 11:31N 38°52' E 001°19'0 0.0
2018-Jun-16 11:19N 38°52' E 001°19'0 0.0
2018-Jun-16 10:55N 38°52' E 001°19'0 0.0
2018-Jun-16 08:49N 38°52' E 001°19'0 0.0
2018-Jun-16 08:25N 38°52' E 001°19'0 0.0
2018-Jun-16 07:07N 38°52' E 001°19'0 0.0
2018-Jun-16 06:55N 38°52' E 001°19'0 0.0
2018-Jun-16 05:01N 38°52' E 001°19'0 0.0
2018-Jun-16 04:55N 38°52' E 001°19'0 0.0
2018-Jun-16 03:07N 38°52' E 001°19'0 0.1
2018-Jun-16 02:55N 38°52' E 001°19'0 0.0
2018-Jun-16 01:43N 38°52' E 001°19'0 0.0
2018-Jun-16 01:19N 38°52' E 001°19'0 0.0
2018-Jun-16 00:43N 38°52' E 001°19'0 0.0
2018-Jun-16 00:19N 38°52' E 001°19'0 0.0
2018-Jun-15 23:49N 38°52' E 001°19'0 0.0
2018-Jun-15 23:25N 38°52' E 001°19'0 0.0
2018-Jun-15 19:19N 38°52' E 001°19'0 0.0
2018-Jun-15 18:55N 38°52' E 001°19'0 0.0
2018-Jun-15 18:25N 38°52' E 001°19'0 0.0
2018-Jun-15 17:49N 38°52' E 001°19'0 0.0
2018-Jun-15 17:07N 38°52' E 001°19'0 0.0
2018-Jun-15 16:43N 38°52' E 001°19'36 0.8
2018-Jun-13 20:52N 38°28' E 000°45'514.4
2018-Jun-13 20:30N 38°24' E 000°40'714.3
2018-Jun-13 20:00N 38°19' E 000°33'714.4
2018-Jun-13 19:30N 38°14' E 000°26'714.4
2018-Jun-13 19:00N 38°10' E 000°20'2714.1
2018-Jun-13 17:05N 37°51' W 000°06'114.2
2018-Jun-13 16:59N 37°50' W 000°07'714.4
2018-Jun-13 16:30N 37°46' W 000°14'714.5
2018-Jun-13 16:00N 37°41' W 000°21'714.7
2018-Jun-13 15:30N 37°36' W 000°27'714.5
2018-Jun-13 15:00N 37°31' W 000°34'714.6
2018-Jun-13 14:30N 37°26' W 000°41'714.6
2018-Jun-13 14:00N 37°21' W 000°48'714.4
2018-Jun-13 13:30N 37°16' W 000°54'714.4
2018-Jun-13 13:00N 37°12' W 001°01'814.4
2018-Jun-13 12:29N 37°06' W 001°08'21113.5
2018-Jun-12 20:50N 36°06' W 005°19'3 9.5
2018-Jun-12 20:30N 36°07' W 005°22'1 2.8
2018-Jun-12 19:59N 36°09' W 005°22'0 0.0
2018-Jun-12 19:29N 36°09' W 005°22'0 0.0
2018-Jun-12 16:56N 36°09' W 005°22'0 0.0
2018-Jun-12 16:29N 36°09' W 005°22'0 0.0
2018-Jun-12 15:05N 36°09' W 005°22'0 0.0
2018-Jun-12 14:55N 36°09' W 005°22'0 0.6
2018-Jun-12 14:29N 36°08' W 005°22'2 3.3
2018-Jun-12 13:58N 36°07' W 005°22'3 6.7
2018-Jun-12 13:30N 36°06' W 005°19'20110.2
2018-Jun-11 17:54N 37°01' W 001°18'611.1
2018-Jun-11 17:22N 37°05' W 001°13'811.0
2018-Jun-11 16:37N 37°11' W 001°05'111.0
2018-Jun-11 16:29N 37°12' W 001°04'511.0
2018-Jun-11 16:00N 37°15' W 000°59'510.8
2018-Jun-11 15:30N 37°19' W 000°54'510.7
2018-Jun-11 15:00N 37°22' W 000°49'510.4
2018-Jun-11 14:30N 37°26' W 000°44'510.5
2018-Jun-11 14:00N 37°30' W 000°40'611.1
2018-Jun-11 13:30N 37°34' W 000°35'611.1
2018-Jun-11 13:00N 37°38' W 000°30'510.8
2018-Jun-11 12:30N 37°42' W 000°26'510.8
2018-Jun-11 12:00N 37°47' W 000°23'611.1
2018-Jun-11 11:30N 37°51' W 000°19'611.3
2018-Jun-11 10:58N 37°57' W 000°15'511.5
2018-Jun-11 10:30N 38°01' W 000°11'611.4
2018-Jun-11 10:00N 38°06' W 000°07'20111.6
2018-Jun-10 16:38N 41°01' E 002°02'211.9
2018-Jun-10 16:28N 41°02' E 002°03'611.9
2018-Jun-10 15:59N 41°07' E 002°06'611.8
2018-Jun-10 15:31N 41°12' E 002°10'611.5
2018-Jun-10 15:00N 41°17' E 002°14'5 9.6
2018-Jun-10 14:30N 41°22' E 002°11'1 0.1
2018-Jun-10 09:10N 41°23' E 002°11'0 0.0
2018-Jun-10 07:34N 41°23' E 002°11'0 0.0
2018-Jun-09 17:22N 41°23' E 002°11'0 0.0
2018-Jun-09 16:34N 41°23' E 002°11'0 0.0
2018-Jun-09 12:04N 41°23' E 002°11'0 0.0
2018-Jun-09 11:46N 41°23' E 002°11'0 0.0
2018-Jun-09 09:46N 41°23' E 002°11'0 0.0
2018-Jun-09 09:28N 41°23' E 002°11'0 0.0
2018-Jun-08 18:22N 41°23' E 002°11'0 0.0
2018-Jun-08 16:52N 41°23' E 002°11'0 0.0
2018-Jun-08 16:22N 41°23' E 002°11'0 0.0
2018-Jun-08 15:52N 41°23' E 002°11'0 0.0
2018-Jun-08 15:28N 41°23' E 002°11'0 0.0
2018-Jun-08 13:40N 41°23' E 002°11'0 0.0
2018-Jun-08 13:22N 41°23' E 002°11'0 0.0
2018-Jun-08 12:52N 41°23' E 002°11'0 0.0
2018-Jun-08 12:22N 41°23' E 002°11'0 0.0
2018-Jun-08 11:58N 41°23' E 002°11'0 0.0
2018-Jun-08 11:28N 41°23' E 002°11'0 0.0
2018-Jun-08 10:58N 41°23' E 002°11'0 0.0
2018-Jun-08 10:16N 41°23' E 002°11'0 0.0
2018-Jun-08 09:58N 41°23' E 002°11'0 0.0
2018-Jun-08 09:16N 41°23' E 002°11'  

Dump ship's entire track history